createdAt,value
2019-05-06T00:01:00.618Z,934.8
2019-05-06T00:02:01.373Z,934.9
2019-05-06T00:03:02.137Z,934.9
2019-05-06T00:05:06.867Z,934.7
2019-05-06T00:06:07.639Z,934.9
2019-05-06T00:07:08.412Z,934.8
2019-05-06T00:08:09.163Z,934.9
2019-05-06T00:09:09.927Z,934.8
2019-05-06T00:10:10.687Z,934.8
2019-05-06T00:11:11.442Z,934.8
2019-05-06T00:12:14.625Z,934.6
2019-05-06T00:13:15.364Z,934.9
2019-05-06T00:15:19.679Z,934.9
2019-05-06T00:16:20.424Z,934.9
2019-05-06T00:17:21.242Z,934.8
2019-05-06T00:18:22.006Z,934.8
2019-05-06T00:19:25.129Z,934.8
2019-05-06T00:20:25.890Z,934.9
2019-05-06T00:21:26.648Z,934.7
2019-05-06T00:22:27.446Z,934.8
2019-05-06T00:23:28.206Z,934.8
2019-05-06T00:25:35.135Z,934.8
2019-05-06T00:26:35.888Z,934.7
2019-05-06T00:27:36.682Z,934.9
2019-05-06T00:28:37.454Z,934.9
2019-05-06T00:29:38.210Z,934.9
2019-05-06T00:30:38.978Z,934.9
2019-05-06T00:31:39.741Z,934.9
2019-05-06T00:32:40.525Z,934.8
2019-05-06T00:33:41.295Z,934.9
2019-05-06T00:35:47.600Z,934.8
2019-05-06T00:36:48.365Z,934.8
2019-05-06T00:37:49.159Z,934.9
2019-05-06T00:38:49.652Z,934.9
2019-05-06T00:39:50.416Z,934.7
2019-05-06T00:40:51.183Z,934.8
2019-05-06T00:41:53.806Z,934.8
2019-05-06T00:42:55.343Z,934.8
2019-05-06T00:43:55.835Z,934.8
2019-05-06T00:46:00.138Z,934.8
2019-05-06T00:47:00.905Z,934.8
2019-05-06T00:48:01.699Z,934.8
2019-05-06T00:49:04.614Z,934.8
2019-05-06T00:50:05.409Z,934.9
2019-05-06T00:51:06.176Z,934.9
2019-05-06T00:52:06.931Z,934.9
2019-05-06T00:53:07.470Z,934.8
2019-05-06T00:54:08.217Z,934.7
2019-05-06T00:56:15.115Z,934
2019-05-06T00:57:15.881Z,934.9
2019-05-06T00:58:16.662Z,932.5
2019-05-06T00:59:17.430Z,934.8
2019-05-06T01:00:18.183Z,934.8
2019-05-06T01:01:30.459Z,934.8
2019-05-06T01:02:31.224Z,934.7
2019-05-06T01:03:34.488Z,934.9
2019-05-06T01:04:35.371Z,934.8
2019-05-06T01:06:39.681Z,934.8
2019-05-06T01:07:40.442Z,934.8
2019-05-06T01:08:41.212Z,934.7
2019-05-06T01:09:44.274Z,934.8
2019-05-06T01:10:46.078Z,934.9
2019-05-06T01:11:46.836Z,934.8
2019-05-06T01:12:47.608Z,934.9
2019-05-06T01:13:48.381Z,934.9
2019-05-06T01:14:49.135Z,934.9
2019-05-06T01:16:56.659Z,934.9
2019-05-06T01:17:57.438Z,934.8
2019-05-06T01:18:58.241Z,934.9
2019-05-06T01:19:59.006Z,934.9
2019-05-06T01:20:59.774Z,934.9
2019-05-06T01:22:00.521Z,934.8
2019-05-06T01:23:01.288Z,935
2019-05-06T01:24:04.497Z,935
2019-05-06T01:25:05.264Z,934.8
2019-05-06T01:27:07.575Z,935
2019-05-06T01:28:08.333Z,935
2019-05-06T01:29:09.130Z,935
2019-05-06T01:30:14.848Z,934.9
2019-05-06T01:31:15.643Z,934.9
2019-05-06T01:32:18.431Z,935.1
2019-05-06T01:33:19.147Z,932.7
2019-05-06T01:34:19.936Z,935
2019-05-06T01:35:20.701Z,933.1
2019-05-06T01:37:28.712Z,935
2019-05-06T01:38:29.461Z,934.9
2019-05-06T01:39:30.246Z,935
2019-05-06T01:40:30.996Z,935
2019-05-06T01:41:34.157Z,934.8
2019-05-06T01:42:35.556Z,935.1
2019-05-06T01:43:36.320Z,932.7
2019-05-06T01:44:37.112Z,935
2019-05-06T01:45:37.880Z,935
2019-05-06T01:47:40.182Z,935
2019-05-06T01:48:40.944Z,934.8
2019-05-06T01:49:41.729Z,935
2019-05-06T01:50:44.638Z,934.9
2019-05-06T01:51:45.399Z,935
2019-05-06T01:52:46.162Z,935
2019-05-06T01:53:46.924Z,934.9
2019-05-06T01:54:47.716Z,935
2019-05-06T01:55:48.480Z,935.1
2019-05-06T01:57:55.699Z,935.1
2019-05-06T01:58:56.468Z,934.8
2019-05-06T01:59:57.250Z,935
2019-05-06T02:00:57.741Z,935
2019-05-06T02:02:05.087Z,935.1
2019-05-06T02:03:05.838Z,935.1
2019-05-06T02:04:06.600Z,935.1
2019-05-06T02:05:07.372Z,934
2019-05-06T02:06:08.133Z,935.1
2019-05-06T02:08:14.544Z,935.1
2019-05-06T02:09:15.308Z,935.1
2019-05-06T02:10:16.102Z,935
2019-05-06T02:11:16.868Z,935.1
2019-05-06T02:12:17.636Z,935.1
2019-05-06T02:13:18.396Z,935.1
2019-05-06T02:14:19.160Z,935
2019-05-06T02:15:19.946Z,935.2
2019-05-06T02:16:20.706Z,935.1
2019-05-06T02:18:26.378Z,935.1
2019-05-06T02:19:27.156Z,935.2
2019-05-06T02:20:27.948Z,935
2019-05-06T02:21:28.706Z,935.2
2019-05-06T02:22:29.472Z,935.2
2019-05-06T02:23:29.978Z,935.2
2019-05-06T02:24:30.736Z,935
2019-05-06T02:25:31.523Z,935.2
2019-05-06T02:26:34.479Z,934.8
2019-05-06T02:28:36.749Z,935.2
2019-05-06T02:29:37.517Z,935.2
2019-05-06T02:30:38.312Z,935.2
2019-05-06T02:31:39.057Z,935.2
2019-05-06T02:32:39.552Z,935.3
2019-05-06T02:33:40.321Z,935
2019-05-06T02:34:41.075Z,935.3
2019-05-06T02:35:41.882Z,935.1
2019-05-06T02:36:46.127Z,935.2
2019-05-06T02:38:56.828Z,935.3
2019-05-06T02:39:57.324Z,935.2
2019-05-06T02:40:58.106Z,935.3
2019-05-06T02:41:58.881Z,935.3
2019-05-06T02:43:02.921Z,935.1
2019-05-06T02:44:04.766Z,935.1
2019-05-06T02:45:05.524Z,935.2
2019-05-06T02:46:06.297Z,935.1
2019-05-06T02:47:06.798Z,935.3
2019-05-06T02:49:15.779Z,935.3
2019-05-06T02:50:16.545Z,935.3
2019-05-06T02:51:17.331Z,935.3
2019-05-06T02:52:18.091Z,935.3
2019-05-06T02:53:18.873Z,935.4
2019-05-06T02:54:19.628Z,935.4
2019-05-06T02:55:20.388Z,935.4
2019-05-06T02:56:24.515Z,933.1
2019-05-06T02:57:25.272Z,935.4
2019-05-06T02:59:27.739Z,935.3
2019-05-06T03:00:28.515Z,935.3
2019-05-06T03:01:29.286Z,935.4
2019-05-06T03:02:49.115Z,935.2
2019-05-06T03:03:49.871Z,935.4
2019-05-06T03:04:53.980Z,935.4
2019-05-06T03:05:54.738Z,935.3
2019-05-06T03:06:55.523Z,935.1
2019-05-06T03:07:58.857Z,935.3
2019-05-06T03:10:05.408Z,935.4
2019-05-06T03:11:06.175Z,935.2
2019-05-06T03:12:06.953Z,935.3
2019-05-06T03:13:07.719Z,935.2
2019-05-06T03:14:08.478Z,935.4
2019-05-06T03:15:09.242Z,935.4
2019-05-06T03:16:10.014Z,935.2
2019-05-06T03:17:14.509Z,934.7
2019-05-06T03:18:16.148Z,935.3
2019-05-06T03:20:18.452Z,935.5
2019-05-06T03:21:19.224Z,935.5
2019-05-06T03:22:20.017Z,935.5
2019-05-06T03:23:24.540Z,935.5
2019-05-06T03:24:25.301Z,935.4
2019-05-06T03:25:26.059Z,935.5
2019-05-06T03:26:26.825Z,935.5
2019-05-06T03:27:27.614Z,935.6
2019-05-06T03:28:34.154Z,935.5
2019-05-06T03:29:37.701Z,935.6
2019-05-06T03:30:38.458Z,935.5
2019-05-06T03:31:39.219Z,935.5
2019-05-06T03:35:24.459Z,935.4
2019-05-06T03:36:42.050Z,935.6
2019-05-06T03:38:55.519Z,935.5
2019-05-06T03:39:56.310Z,935.6
2019-05-06T03:40:57.075Z,935.6
2019-05-06T03:41:57.820Z,935.6
2019-05-06T03:42:58.616Z,935.6
2019-05-06T03:43:59.364Z,935.6
2019-05-06T03:45:00.138Z,935.5
2019-05-06T03:46:04.646Z,935.6
2019-05-06T03:47:06.912Z,935.6
2019-05-06T03:49:09.242Z,935.7
2019-05-06T03:50:13.107Z,935.5
2019-05-06T03:51:14.812Z,935.7
2019-05-06T03:52:15.581Z,935.7
2019-05-06T03:53:16.366Z,935.5
2019-05-06T03:54:17.135Z,935.7
2019-05-06T03:55:17.896Z,935.7
2019-05-06T03:56:24.693Z,935.6
2019-05-06T03:57:25.634Z,935.6
2019-05-06T03:59:33.149Z,935.6
2019-05-06T04:00:34.523Z,935.6
2019-05-06T04:01:35.029Z,935.7
2019-05-06T04:02:44.177Z,935.5
2019-05-06T04:03:58.018Z,935.6
2019-05-06T04:04:58.787Z,935.7
2019-05-06T04:05:59.547Z,935.7
2019-05-06T04:07:03.609Z,935.7
2019-05-06T04:08:05.076Z,935.7
2019-05-06T04:10:09.110Z,935.6
2019-05-06T04:11:09.881Z,935.7
2019-05-06T04:12:13.745Z,935.8
2019-05-06T04:13:14.750Z,935.8
2019-05-06T04:14:15.545Z,935.8
2019-05-06T04:15:16.309Z,935.8
2019-05-06T04:16:16.803Z,935.8
2019-05-06T04:17:17.606Z,935.8
2019-05-06T04:18:18.372Z,935.8
2019-05-06T04:20:25.875Z,935.6
2019-05-06T04:21:26.628Z,935.8
2019-05-06T04:22:27.392Z,935.8
2019-05-06T04:23:28.157Z,933.5
2019-05-06T04:24:28.940Z,935.8
2019-05-06T04:25:29.704Z,935.8
2019-05-06T04:26:33.470Z,935.9
2019-05-06T04:27:34.807Z,935.9
2019-05-06T04:28:35.639Z,935.9
2019-05-06T04:30:37.986Z,935.9
2019-05-06T04:31:38.732Z,935.9
2019-05-06T04:32:39.496Z,935.9
2019-05-06T04:33:40.265Z,936
2019-05-06T04:34:44.104Z,935
2019-05-06T04:35:44.867Z,935.9
2019-05-06T04:36:45.635Z,935.9
2019-05-06T04:37:46.397Z,936
2019-05-06T04:38:47.161Z,936
2019-05-06T04:40:55.554Z,936
2019-05-06T04:41:56.332Z,935.9
2019-05-06T04:42:57.103Z,936.1
2019-05-06T04:43:57.861Z,936
2019-05-06T04:44:58.641Z,936.2
2019-05-06T04:45:59.413Z,936
2019-05-06T04:47:05.593Z,936.1
2019-05-06T04:48:06.385Z,936.1
2019-05-06T04:49:15.821Z,936.1
2019-05-06T04:51:18.132Z,936.2
2019-05-06T04:52:18.900Z,936.2
2019-05-06T04:53:19.665Z,936.2
2019-05-06T04:54:25.961Z,936.2
2019-05-06T04:55:27.020Z,936
2019-05-06T04:56:27.791Z,936.2
2019-05-06T04:57:28.538Z,936.2
2019-05-06T04:58:29.298Z,936
2019-05-06T04:59:33.046Z,936.1
2019-05-06T05:01:38.173Z,936.1
2019-05-06T05:02:38.938Z,936.2
2019-05-06T05:03:39.694Z,936.2
2019-05-06T05:04:43.689Z,934
2019-05-06T05:05:46.161Z,933.9
2019-05-06T05:06:46.913Z,936.2
2019-05-06T05:07:47.693Z,936
2019-05-06T05:08:48.446Z,936.2
2019-05-06T05:09:49.211Z,936.2
2019-05-06T05:11:55.022Z,936.3
2019-05-06T05:12:55.786Z,936.2
2019-05-06T05:13:56.561Z,936.2
2019-05-06T05:14:57.331Z,936.2
2019-05-06T05:15:58.119Z,936.2
2019-05-06T05:16:58.872Z,936.2
2019-05-06T05:17:59.655Z,936.3
2019-05-06T05:19:02.887Z,936.2
2019-05-06T05:20:03.652Z,936.3
2019-05-06T05:22:18.396Z,936.1
2019-05-06T05:23:19.160Z,936.3
2019-05-06T05:24:19.926Z,936.2
2019-05-06T05:25:22.572Z,936.3
2019-05-06T05:26:23.682Z,936.3
2019-05-06T05:27:24.443Z,936.3
2019-05-06T05:28:25.201Z,936.2
2019-05-06T05:29:25.962Z,936.4
2019-05-06T05:30:26.716Z,936.3
2019-05-06T05:32:29.043Z,936.4
2019-05-06T05:33:29.804Z,936.4
2019-05-06T05:34:43.989Z,936.4
2019-05-06T05:35:44.742Z,936.4
2019-05-06T05:36:45.525Z,936.3
2019-05-06T05:37:46.285Z,936.4
2019-05-06T05:38:47.088Z,936.3
2019-05-06T05:39:47.840Z,936.4
2019-05-06T05:40:48.599Z,936.5
2019-05-06T05:42:54.819Z,936.4
2019-05-06T05:43:55.581Z,936.5
2019-05-06T05:44:56.336Z,936.3
2019-05-06T05:45:57.101Z,936.5
2019-05-06T05:46:57.881Z,936.3
2019-05-06T05:47:58.653Z,936.5
2019-05-06T05:48:59.409Z,936.5
2019-05-06T05:50:02.210Z,936.5
2019-05-06T05:51:04.210Z,935.1
2019-05-06T05:53:06.556Z,934.9
2019-05-06T05:54:07.303Z,936.6
2019-05-06T05:55:08.069Z,936.4
2019-05-06T05:56:08.821Z,936.5
2019-05-06T05:57:11.744Z,936.6
2019-05-06T05:58:14.125Z,936.4
2019-05-06T05:59:14.626Z,936.6
2019-05-06T06:00:15.123Z,936.6
2019-05-06T06:01:15.886Z,936.5
2019-05-06T06:03:22.454Z,936.5
2019-05-06T06:04:23.573Z,936.7
2019-05-06T06:05:24.347Z,936.7
2019-05-06T06:06:25.123Z,936.7
2019-05-06T06:07:30.035Z,936.7
2019-05-06T06:08:33.289Z,936.6
2019-05-06T06:09:34.542Z,936.7
2019-05-06T06:10:35.301Z,936.5
2019-05-06T06:11:36.080Z,936.6
2019-05-06T06:13:43.151Z,936.7
2019-05-06T06:14:47.991Z,936.7
2019-05-06T06:15:48.763Z,936.5
2019-05-06T06:16:49.513Z,936.7
2019-05-06T06:17:52.817Z,936.7
2019-05-06T06:18:53.581Z,936.8
2019-05-06T06:19:54.506Z,936.7
2019-05-06T06:20:55.266Z,936.7
2019-05-06T06:21:56.022Z,936.8
2019-05-06T06:24:03.074Z,936.8
2019-05-06T06:25:05.557Z,936.7
2019-05-06T06:26:09.333Z,936.8
2019-05-06T06:27:10.091Z,936.8
2019-05-06T06:28:12.939Z,936.8
2019-05-06T06:29:13.759Z,936.8
2019-05-06T06:30:14.529Z,936.8
2019-05-06T06:31:15.299Z,936.7
2019-05-06T06:32:16.059Z,936.8
2019-05-06T06:34:22.675Z,936.8
2019-05-06T06:35:23.967Z,936.7
2019-05-06T06:36:24.733Z,936.7
2019-05-06T06:37:25.661Z,936.7
2019-05-06T06:38:26.463Z,936.9
2019-05-06T06:39:27.219Z,936.7
2019-05-06T06:40:27.991Z,936.8
2019-05-06T06:41:28.762Z,936.7
2019-05-06T06:42:29.519Z,936.9
2019-05-06T06:44:35.912Z,936.8
2019-05-06T06:45:36.665Z,936.7
2019-05-06T06:46:37.435Z,936.9
2019-05-06T06:47:38.197Z,936.9
2019-05-06T06:48:38.992Z,936.8
2019-05-06T06:49:39.756Z,936.9
2019-05-06T06:50:42.917Z,936.9
2019-05-06T06:51:43.722Z,936.9
2019-05-06T06:52:44.471Z,936.9
2019-05-06T06:54:48.787Z,936.9
2019-05-06T06:55:49.563Z,936.9
2019-05-06T06:57:12.808Z,936.9
2019-05-06T06:58:13.585Z,936.9
2019-05-06T06:59:14.363Z,937
2019-05-06T07:00:15.134Z,936.9
2019-05-06T07:01:15.903Z,936.1
2019-05-06T07:02:16.664Z,937
2019-05-06T07:03:17.422Z,936.8
2019-05-06T07:05:29.635Z,936.9
2019-05-06T07:06:30.407Z,937
2019-05-06T07:07:48.513Z,934.9
2019-05-06T07:08:49.258Z,937
2019-05-06T07:09:50.031Z,936.8
2019-05-06T07:10:52.936Z,937
2019-05-06T07:11:53.751Z,937
2019-05-06T07:12:54.513Z,937
2019-05-06T07:13:55.275Z,937
2019-05-06T07:15:57.599Z,937
2019-05-06T07:16:58.363Z,936.9
2019-05-06T07:17:59.130Z,936.9
2019-05-06T07:18:59.904Z,936.9
2019-05-06T07:20:03.282Z,936.9
2019-05-06T07:21:07.525Z,936.9
2019-05-06T07:22:08.296Z,936.9
2019-05-06T07:23:09.061Z,936.8
2019-05-06T07:24:09.821Z,937
2019-05-06T07:26:14.751Z,936.9
2019-05-06T07:27:15.513Z,936.9
2019-05-06T07:28:16.280Z,936.7
2019-05-06T07:29:27.521Z,936.9
2019-05-06T07:30:28.310Z,936.9
2019-05-06T07:31:29.066Z,936.9
2019-05-06T07:32:29.567Z,936.9
2019-05-06T07:33:30.333Z,936.8
2019-05-06T07:34:33.253Z,936.9
2019-05-06T07:36:45.448Z,937
2019-05-06T07:37:46.218Z,936.8
2019-05-06T07:38:46.979Z,936.9
2019-05-06T07:39:47.745Z,937
2019-05-06T07:40:48.541Z,937
2019-05-06T07:41:49.308Z,937
2019-05-06T07:42:49.810Z,937
2019-05-06T07:43:52.976Z,937
2019-05-06T07:44:54.141Z,937
2019-05-06T07:46:58.485Z,935.8
2019-05-06T07:47:59.267Z,937
2019-05-06T07:49:00.036Z,936.9
2019-05-06T07:50:03.272Z,937
2019-05-06T07:51:04.260Z,934.9
2019-05-06T07:52:05.015Z,937
2019-05-06T07:53:05.782Z,936.9
2019-05-06T07:54:06.279Z,937
2019-05-06T07:55:07.040Z,936.8
2019-05-06T07:57:14.609Z,936.8
2019-05-06T07:58:15.387Z,937
2019-05-06T07:59:16.143Z,937.1
2019-05-06T08:00:16.903Z,937
2019-05-06T08:01:17.725Z,937
2019-05-06T08:02:18.485Z,937
2019-05-06T08:03:19.251Z,937
2019-05-06T08:04:20.007Z,937
2019-05-06T08:05:22.787Z,937
2019-05-06T08:06:29.723Z,936.9
2019-05-06T08:07:33.033Z,937
2019-05-06T08:08:34.870Z,936.9
2019-05-06T08:09:35.678Z,937
2019-05-06T08:10:36.437Z,937
2019-05-06T08:11:37.233Z,936.9
2019-05-06T08:12:37.996Z,937.1
2019-05-06T08:13:38.757Z,937.1
2019-05-06T08:14:39.514Z,937.1
2019-05-06T08:15:42.441Z,937.1
2019-05-06T08:17:47.149Z,937
2019-05-06T08:18:47.908Z,937
2019-05-06T08:19:48.669Z,936.9
2019-05-06T08:20:49.431Z,937
2019-05-06T08:21:52.244Z,937
2019-05-06T08:22:57.381Z,937
2019-05-06T08:23:58.155Z,937
2019-05-06T08:24:58.913Z,937
2019-05-06T08:26:18.586Z,937
2019-05-06T08:28:45.054Z,937
2019-05-06T08:29:45.817Z,937.1
2019-05-06T08:30:46.606Z,936.9
2019-05-06T08:31:47.341Z,937
2019-05-06T08:32:48.118Z,937
2019-05-06T08:33:48.903Z,937
2019-05-06T08:34:49.671Z,937
2019-05-06T08:35:50.430Z,937
2019-05-06T08:36:53.751Z,936.9
2019-05-06T08:38:56.081Z,936.8
2019-05-06T08:39:56.849Z,937
2019-05-06T08:40:57.611Z,936.8
2019-05-06T08:41:58.377Z,937
2019-05-06T08:42:59.162Z,936.8
2019-05-06T08:44:02.895Z,936.9
2019-05-06T08:45:06.715Z,937
2019-05-06T08:46:07.810Z,937
2019-05-06T08:47:13.596Z,937
2019-05-06T08:49:17.906Z,937
2019-05-06T08:50:18.674Z,937
2019-05-06T08:51:19.439Z,937
2019-05-06T08:52:22.079Z,937
2019-05-06T08:53:25.353Z,935.4
2019-05-06T08:54:26.115Z,937
2019-05-06T08:55:26.885Z,936.9
2019-05-06T08:56:27.643Z,937
2019-05-06T08:57:28.425Z,937
2019-05-06T08:59:34.503Z,935.1
2019-05-06T09:00:35.271Z,937
2019-05-06T09:01:36.021Z,937
2019-05-06T09:02:36.794Z,937
2019-05-06T09:03:37.577Z,937
2019-05-06T09:04:38.343Z,937
2019-05-06T09:05:39.115Z,937
2019-05-06T09:06:39.873Z,937
2019-05-06T09:07:43.129Z,937
2019-05-06T09:09:45.563Z,937
2019-05-06T09:10:46.316Z,937
2019-05-06T09:11:47.081Z,936.4
2019-05-06T09:12:47.842Z,937
2019-05-06T09:13:48.665Z,937
2019-05-06T09:14:49.426Z,937.1
2019-05-06T09:15:52.731Z,937.1
2019-05-06T09:16:55.217Z,937
2019-05-06T09:17:55.969Z,937
2019-05-06T09:20:03.007Z,937
2019-05-06T09:21:04.102Z,937.1
2019-05-06T09:22:04.595Z,937.1
2019-05-06T09:23:05.884Z,937.1
2019-05-06T09:24:06.671Z,937.2
2019-05-06T09:25:07.426Z,937
2019-05-06T09:26:08.215Z,937.2
2019-05-06T09:27:08.979Z,937.1
2019-05-06T09:28:09.744Z,937.2
2019-05-06T09:30:16.365Z,937.2
2019-05-06T09:31:17.133Z,937.2
2019-05-06T09:32:17.907Z,937.2
2019-05-06T09:33:18.674Z,937.2
2019-05-06T09:34:19.474Z,937.2
2019-05-06T09:35:22.592Z,937.4
2019-05-06T09:36:54.302Z,937.4
2019-05-06T09:37:55.525Z,937.3
2019-05-06T09:38:56.288Z,937.4
2019-05-06T09:41:04.771Z,937.4
2019-05-06T09:42:05.665Z,937.4
2019-05-06T09:43:06.426Z,937.3
2019-05-06T09:44:07.194Z,937.5
2019-05-06T09:45:07.970Z,937.3
2019-05-06T09:46:08.740Z,937.5
2019-05-06T09:47:09.515Z,937.2
2019-05-06T09:48:13.342Z,937.4
2019-05-06T09:49:14.108Z,937.3
2019-05-06T09:51:18.156Z,937.3
2019-05-06T09:52:18.964Z,936.5
2019-05-06T09:53:19.724Z,937.3
2019-05-06T09:54:23.340Z,937.2
2019-05-06T09:55:24.249Z,935.1
2019-05-06T09:56:25.012Z,937.3
2019-05-06T09:57:25.966Z,937.3
2019-05-06T09:58:26.464Z,937.3
2019-05-06T09:59:27.230Z,937.1
2019-05-06T10:01:36.413Z,937.3
2019-05-06T10:02:37.140Z,937.2
2019-05-06T10:03:37.903Z,937.3
2019-05-06T10:04:38.677Z,937.2
2019-05-06T10:05:39.470Z,937.1
2019-05-06T10:07:02.643Z,937.1
2019-05-06T10:08:04.409Z,937.2
2019-05-06T10:09:06.278Z,937.2
2019-05-06T10:10:07.036Z,937.3
2019-05-06T10:12:09.356Z,937.2
2019-05-06T10:13:10.113Z,937.1
2019-05-06T10:14:13.594Z,937.2
2019-05-06T10:15:14.340Z,937.2
2019-05-06T10:16:15.142Z,937.2
2019-05-06T10:17:15.899Z,937.2
2019-05-06T10:18:16.648Z,937.1
2019-05-06T10:19:17.440Z,937.2
2019-05-06T10:20:18.212Z,937.2
2019-05-06T10:22:24.746Z,937.2
2019-05-06T10:23:25.514Z,937.2
2019-05-06T10:24:26.284Z,937.1
2019-05-06T10:25:27.038Z,937.3
2019-05-06T10:26:27.839Z,937.2
2019-05-06T10:27:28.596Z,937.2
2019-05-06T10:28:29.380Z,937.2
2019-05-06T10:29:30.149Z,937.2
2019-05-06T10:30:33.610Z,937.2
2019-05-06T10:32:37.931Z,937.2
2019-05-06T10:33:38.694Z,937.2
2019-05-06T10:34:39.459Z,937.1
2019-05-06T10:35:42.667Z,937.2
2019-05-06T10:36:43.870Z,937.1
2019-05-06T10:37:44.623Z,937.1
2019-05-06T10:38:45.392Z,937.2
2019-05-06T10:39:46.159Z,937.1
2019-05-06T10:41:08.316Z,937.2
2019-05-06T10:43:15.294Z,937.2
2019-05-06T10:44:16.057Z,937.2
2019-05-06T10:45:16.818Z,937.2
2019-05-06T10:46:17.595Z,937.1
2019-05-06T10:47:18.360Z,937.2
2019-05-06T10:48:19.123Z,937.2
2019-05-06T10:49:22.003Z,937.2
2019-05-06T10:50:24.074Z,937
2019-05-06T10:51:24.889Z,937.2
2019-05-06T10:53:27.242Z,937.2
2019-05-06T10:54:27.999Z,937.1
2019-05-06T10:55:28.763Z,937.2
2019-05-06T10:56:31.963Z,937.2
2019-05-06T10:57:33.934Z,937.2
2019-05-06T10:58:34.692Z,935.8
2019-05-06T10:59:35.458Z,937.2
2019-05-06T11:00:36.214Z,937.2
2019-05-06T11:01:36.972Z,937.2
2019-05-06T11:03:43.076Z,937.2
2019-05-06T11:04:43.888Z,937.2
2019-05-06T11:05:44.649Z,937
2019-05-06T11:06:45.430Z,937.1
2019-05-06T11:07:46.210Z,937
2019-05-06T11:08:46.985Z,937.2
2019-05-06T11:09:47.740Z,937.1
2019-05-06T11:10:48.496Z,935.1
2019-05-06T11:11:49.270Z,937.2
2019-05-06T11:13:55.573Z,937.1
2019-05-06T11:14:56.929Z,937.1
2019-05-06T11:15:57.698Z,937.2
2019-05-06T11:16:58.464Z,937.2
2019-05-06T11:17:59.256Z,937.2
2019-05-06T11:19:05.281Z,937.1
2019-05-06T11:20:14.536Z,937.2
2019-05-06T11:21:15.035Z,937.2
2019-05-06T11:22:15.809Z,937
2019-05-06T11:24:20.138Z,937.1
2019-05-06T11:25:23.449Z,937.1
2019-05-06T11:26:24.888Z,937.2
2019-05-06T11:27:45.556Z,937.1
2019-05-06T11:28:46.332Z,937.1
2019-05-06T11:29:47.086Z,937.2
2019-05-06T11:30:47.858Z,937.2
2019-05-06T11:31:48.620Z,937
2019-05-06T11:32:49.380Z,937.1
2019-05-06T11:34:56.113Z,937
2019-05-06T11:35:56.609Z,937.2
2019-05-06T11:36:57.368Z,937
2019-05-06T11:37:58.119Z,937.1
2019-05-06T11:38:58.915Z,937
2019-05-06T11:39:59.685Z,937.2
2019-05-06T11:41:00.442Z,937.2
2019-05-06T11:42:36.392Z,937.2
2019-05-06T11:43:37.150Z,937.2
2019-05-06T11:45:45.987Z,937.2
2019-05-06T11:46:46.764Z,937.2
2019-05-06T11:47:47.519Z,937.2
2019-05-06T11:48:48.286Z,937.1
2019-05-06T11:49:49.059Z,935.3
2019-05-06T11:50:49.861Z,937.1
2019-05-06T11:51:50.584Z,937.2
2019-05-06T11:52:56.885Z,937.2
2019-05-06T11:53:57.654Z,937.2
2019-05-06T11:56:02.652Z,937.2
2019-05-06T11:57:04.089Z,937.2
2019-05-06T11:58:04.844Z,937.2
2019-05-06T11:59:05.617Z,937.2
2019-05-06T12:00:06.404Z,937.2
2019-05-06T12:01:07.170Z,937.1
2019-05-06T12:02:07.929Z,937.3
2019-05-06T12:03:08.729Z,937.3
2019-05-06T12:04:09.504Z,937.3
2019-05-06T12:06:15.461Z,937.3
2019-05-06T12:07:17.300Z,937.3
2019-05-06T12:08:18.083Z,937.3
2019-05-06T12:09:22.619Z,937.3
2019-05-06T12:10:23.610Z,937.3
2019-05-06T12:11:24.944Z,937.3
2019-05-06T12:12:25.731Z,937.3
2019-05-06T12:13:26.493Z,935.3
2019-05-06T12:14:27.256Z,937.3
2019-05-06T12:16:34.551Z,937.3
2019-05-06T12:17:35.314Z,937.2
2019-05-06T12:18:36.124Z,937.4
2019-05-06T12:19:36.887Z,937.4
2019-05-06T12:20:37.666Z,937.4
2019-05-06T12:21:38.427Z,937.3
2019-05-06T12:22:39.206Z,937.4
2019-05-06T12:23:44.212Z,937.4
2019-05-06T12:24:45.579Z,937.4
2019-05-06T12:26:52.160Z,937.4
2019-05-06T12:27:53.787Z,937.3
2019-05-06T12:28:57.225Z,937.4
2019-05-06T12:29:57.990Z,937.4
2019-05-06T12:30:58.783Z,937.3
2019-05-06T12:31:59.553Z,937.4
2019-05-06T12:33:02.984Z,934.6
2019-05-06T12:34:03.987Z,937.2
2019-05-06T12:35:04.767Z,937.4
2019-05-06T12:37:09.109Z,937.3
2019-05-06T12:38:31.743Z,937.3
2019-05-06T12:39:34.232Z,937.2
2019-05-06T12:40:34.993Z,937.3
2019-05-06T12:41:35.779Z,937.2
2019-05-06T12:42:36.545Z,937.3
2019-05-06T12:43:37.319Z,937.4
2019-05-06T12:44:38.088Z,937.4
2019-05-06T12:45:38.858Z,937.4
2019-05-06T12:47:45.010Z,937.4
2019-05-06T12:48:45.780Z,937.4
2019-05-06T12:49:46.548Z,937.3
2019-05-06T12:50:47.318Z,937.3
2019-05-06T12:51:48.153Z,937.5
2019-05-06T12:52:48.892Z,937.3
2019-05-06T12:53:49.642Z,937.5
2019-05-06T12:54:53.798Z,937.4
2019-05-06T12:55:54.797Z,937.5
2019-05-06T12:57:57.120Z,937.4
2019-05-06T12:58:57.884Z,937.5
2019-05-06T12:59:58.650Z,937.5
2019-05-06T13:00:59.415Z,937.5
2019-05-06T13:02:03.306Z,937.5
2019-05-06T13:03:04.063Z,937.5
2019-05-06T13:04:06.023Z,937.5
2019-05-06T13:05:06.792Z,937.5
2019-05-06T13:06:13.467Z,937.5
2019-05-06T13:09:05.381Z,937.5
2019-05-06T13:10:06.142Z,937.5
2019-05-06T13:11:06.913Z,937.5
2019-05-06T13:12:07.679Z,937.5
2019-05-06T13:13:08.461Z,937.4
2019-05-06T13:14:09.221Z,937.5
2019-05-06T13:15:12.299Z,937.5
2019-05-06T13:16:13.787Z,937.3
2019-05-06T13:17:14.562Z,937.5
2019-05-06T13:19:18.625Z,937.3
2019-05-06T13:20:19.438Z,937.4
2019-05-06T13:21:22.771Z,937.5
2019-05-06T13:22:25.651Z,937.4
2019-05-06T13:23:27.252Z,937.4
2019-05-06T13:24:28.055Z,937.4
2019-05-06T13:25:28.825Z,937.3
2019-05-06T13:26:29.582Z,937.4
2019-05-06T13:27:32.927Z,937.4
2019-05-06T13:29:37.237Z,935.5
2019-05-06T13:30:38.017Z,937.4
2019-05-06T13:31:38.795Z,937.3
2019-05-06T13:32:39.554Z,937.4
2019-05-06T13:33:45.524Z,937.4
2019-05-06T13:34:46.309Z,937.4
2019-05-06T13:35:47.067Z,937.5
2019-05-06T13:36:48.246Z,937.4
2019-05-06T13:37:49.039Z,937.3
2019-05-06T13:40:17.548Z,937.3
2019-05-06T13:41:18.348Z,937.4
2019-05-06T13:42:19.107Z,937.3
2019-05-06T13:43:19.873Z,937.3
2019-05-06T13:44:23.320Z,937.3
2019-05-06T13:45:24.091Z,937.5
2019-05-06T13:46:24.855Z,937.4
2019-05-06T13:47:25.780Z,937.3
2019-05-06T13:48:26.569Z,937.4
2019-05-06T13:50:29.399Z,937.5
2019-05-06T13:51:32.808Z,937.5
2019-05-06T13:52:33.576Z,937.5
2019-05-06T13:53:46.931Z,935.7
2019-05-06T13:54:47.685Z,937.4
2019-05-06T13:55:48.477Z,937.4
2019-05-06T13:56:52.583Z,937.4
2019-05-06T13:57:53.526Z,937.5
2019-05-06T13:58:54.301Z,937.5
2019-05-06T14:01:08.639Z,937.5
2019-05-06T14:02:09.976Z,937.5
2019-05-06T14:03:10.730Z,937.4
2019-05-06T14:04:13.964Z,937.5
2019-05-06T14:05:14.727Z,937.5
2019-05-06T14:06:15.493Z,937.5
2019-05-06T14:07:16.254Z,937.5
2019-05-06T14:08:17.015Z,937.4
2019-05-06T14:09:44.185Z,937.6
2019-05-06T14:12:04.176Z,937.5
2019-05-06T14:13:04.943Z,937.5
2019-05-06T14:14:05.729Z,937.6
2019-05-06T14:15:06.507Z,937.6
2019-05-06T14:16:07.273Z,937.6
2019-05-06T14:17:08.036Z,937.6
2019-05-06T14:18:08.794Z,937.7
2019-05-06T14:19:09.581Z,937.6
2019-05-06T14:20:12.832Z,937.6
2019-05-06T14:22:17.139Z,937.6
2019-05-06T14:23:17.897Z,937.6
2019-05-06T14:24:22.452Z,937.5
2019-05-06T14:25:24.442Z,937.6
2019-05-06T14:26:25.217Z,937.6
2019-05-06T14:27:25.713Z,937.6
2019-05-06T14:28:26.478Z,936.5
2019-05-06T14:29:27.261Z,937.6
2019-05-06T14:30:28.023Z,937.4
2019-05-06T14:32:34.735Z,937.6
2019-05-06T14:33:35.501Z,937.6
2019-05-06T14:34:36.274Z,937.6
2019-05-06T14:35:37.037Z,937.6
2019-05-06T14:36:37.801Z,936.3
2019-05-06T14:37:38.567Z,937.6
2019-05-06T14:38:39.339Z,937.5
2019-05-06T14:40:00.253Z,937.7
2019-05-06T14:41:09.330Z,937.6
2019-05-06T14:43:14.561Z,937.6
2019-05-06T14:44:15.318Z,937.6
2019-05-06T14:45:16.147Z,937.5
2019-05-06T14:46:16.902Z,937.6
2019-05-06T14:47:17.667Z,937.6
2019-05-06T14:48:18.435Z,937.6
2019-05-06T14:49:19.193Z,937.6
2019-05-06T14:50:20.033Z,937.6
2019-05-06T14:51:23.066Z,937.6
2019-05-06T14:53:27.573Z,936
2019-05-06T14:54:29.437Z,937.6
2019-05-06T14:55:32.530Z,937.6
2019-05-06T14:56:33.421Z,937.6
2019-05-06T14:57:34.191Z,937.6
2019-05-06T14:58:34.961Z,937.6
2019-05-06T14:59:35.749Z,937.7